Time;durP1;ratioP1;P1;durP2;ratioP2;P2;SDS_P1;SDS_P2;PMS_P1;PMS_P2;Temp;Humidity;BMP_temperature;BMP_pressure;BME280_temperature;BME280_humidity;BME280_pressure;Samples;Min_cycle;Max_cycle;Signal;HPM_P1;HPM_P2
2022/01/12 00:01:51;;;;;;;;;12.00;12.00;;;;;16.43;55.20;103583.97;4991008;28;10010;-68
2022/01/12 00:04:16;;;;;;;;;15.25;14.00;;;;;16.47;55.47;103592.91;4990669;28;8898;-68
2022/01/12 00:06:42;;;;;;;;;11.50;11.50;;;;;16.46;55.43;103599.03;4991178;28;8796;-68
2022/01/12 00:09:08;;;;;;;;;10.00;10.00;;;;;16.49;55.17;103603.53;4991389;28;9697;-68
2022/01/12 00:11:35;;;;;;;;;13.25;12.25;;;;;16.48;55.13;103607.91;4990527;28;8797;-68
2022/01/12 00:14:01;;;;;;;;;15.00;12.75;;;;;16.48;54.97;103592.09;4990848;28;8808;-68
2022/01/12 00:16:26;;;;;;;;;13.00;12.00;;;;;16.45;55.00;103573.50;4991539;28;9974;-68
2022/01/12 00:18:52;;;;;;;;;13.50;12.50;;;;;16.48;54.90;103572.72;4990316;28;9635;-68
2022/01/12 00:21:17;;;;;;;;;11.00;9.50;;;;;16.46;54.92;103564.75;4991297;28;8871;-68
2022/01/12 00:23:42;;;;;;;;;14.25;12.75;;;;;16.47;54.93;103566.53;4990809;28;8922;-68
2022/01/12 00:33:08;;;;;;;;;11.50;10.50;;;;;16.48;54.75;103559.53;4990721;28;8850;-68
2022/01/12 00:34:25;;;;;;;;;11.75;10.50;;;;;16.47;54.82;103579.72;4994011;28;9686;-68
2022/01/12 00:36:50;;;;;;;;;15.25;14.00;;;;;16.46;54.72;103561.22;4993131;28;9944;-68
2022/01/12 00:39:15;;;;;;;;;18.75;14.75;;;;;16.49;54.68;103570.16;4992684;28;8820;-68
2022/01/12 00:41:41;;;;;;;;;14.75;14.00;;;;;16.47;54.78;103581.47;4994401;28;8816;-68
2022/01/12 00:44:10;;;;;;;;;12.00;11.50;;;;;16.49;54.33;103593.91;4994479;28;8855;-68
2022/01/12 00:46:36;;;;;;;;;13.00;12.50;;;;;16.50;54.53;103594.78;4993759;28;9727;-68
2022/01/12 00:49:02;;;;;;;;;16.50;13.50;;;;;16.35;54.32;103569.56;4994057;28;9722;-68
2022/01/12 00:51:33;;;;;;;;;11.75;11.75;;;;;16.49;54.16;103593.00;4994323;28;9909;-68
2022/01/12 00:54:01;;;;;;;;;11.75;10.25;;;;;16.49;54.35;103585.09;4993399;28;8831;-68
2022/01/12 00:56:29;;;;;;;;;11.25;11.25;;;;;16.45;54.21;103578.78;4994582;28;9806;-68
2022/01/12 00:58:54;;;;;;;;;16.25;16.25;;;;;16.48;54.32;103585.91;4994061;28;9728;-68
2022/01/12 01:01:21;;;;;;;;;11.25;10.25;;;;;16.49;54.20;103583.34;4993674;28;9898;-68
2022/01/12 01:03:48;;;;;;;;;13.75;13.25;;;;;16.48;54.25;103584.19;4992820;28;8840;-68
2022/01/12 01:06:14;;;;;;;;;10.00;10.00;;;;;16.47;54.27;103579.72;4994249;28;9875;-68
2022/01/12 01:08:39;;;;;;;;;11.50;11.00;;;;;16.48;54.05;103583.28;4993496;28;9723;-68
2022/01/12 01:11:05;;;;;;;;;13.50;11.50;;;;;16.48;54.04;103573.63;4994081;28;8789;-68
2022/01/12 01:13:42;;;;;;;;;10.25;10.25;;;;;16.51;53.88;103559.66;4993925;28;8902;-69
2022/01/12 01:16:15;;;;;;;;;12.50;10.75;;;;;16.49;54.04;103556.06;4993050;28;8896;-68
2022/01/12 01:26:54;;;;;;;;;11.75;11.75;;;;;16.49;53.73;103564.88;4993589;28;9696;-68
2022/01/12 01:29:20;;;;;;;;;13.50;12.25;;;;;16.49;53.69;103572.81;4993186;28;9714;-68
2022/01/12 01:31:46;;;;;;;;;11.00;11.00;;;;;16.50;53.62;103573.66;4993492;28;8791;-68
2022/01/12 01:34:14;;;;;;;;;13.25;12.50;;;;;16.52;53.86;103583.47;4993475;28;9670;-68
2022/01/12 01:36:42;;;;;;;;;10.50;10.50;;;;;16.52;53.45;103587.84;4993077;28;11633;-69
2022/01/12 01:39:10;;;;;;;;;12.75;11.75;;;;;16.50;53.78;103600.94;4993305;28;9689;-68
2022/01/12 01:41:38;;;;;;;;;12.50;11.00;;;;;16.49;53.59;103598.28;4993248;28;9549;-69
2022/01/12 01:53:18;;;;;;;;;13.00;12.00;;;;;16.50;53.48;103626.41;4993278;28;9693;-68
2022/01/12 01:55:09;;;;;;;;;8.75;8.75;;;;;16.51;53.38;103649.31;4993248;28;9652;-67
2022/01/12 01:57:35;;;;;;;;;8.75;8.75;;;;;16.50;53.57;103656.34;4992589;28;9515;-68
2022/01/12 02:00:19;;;;;;;;;12.00;10.75;;;;;16.52;53.45;103659.94;4992919;28;9569;-68
2022/01/12 02:02:45;;;;;;;;;9.25;9.25;;;;;16.51;53.12;103673.06;4992927;28;9641;-67
2022/01/12 02:05:11;;;;;;;;;10.00;10.00;;;;;16.51;53.45;103673.97;4992374;28;9764;-67
2022/01/12 02:07:37;;;;;;;;;10.25;10.25;;;;;16.49;53.26;103678.28;4992948;28;9639;-67
2022/01/12 02:10:03;;;;;;;;;10.25;10.00;;;;;16.48;53.12;103687.03;4992998;28;8796;-67
2022/01/12 02:12:29;;;;;;;;;10.75;10.75;;;;;16.52;53.31;103693.34;4992522;28;8776;-68
2022/01/12 02:14:57;;;;;;;;;10.75;10.75;;;;;16.41;53.19;103679.69;4992360;28;9641;-67
2022/01/12 02:17:28;;;;;;;;;12.75;12.25;;;;;16.43;53.31;103678.00;4992015;28;9697;-67
2022/01/12 02:20:12;;;;;;;;;11.50;10.25;;;;;16.48;53.07;103686.13;4991938;28;9728;-68
2022/01/12 02:35:15;;;;;;;;;10.25;9.50;;;;;16.48;53.04;103689.66;4991861;28;9571;-68
2022/01/12 02:36:32;;;;;;;;;9.75;9.00;;;;;16.48;53.06;103705.50;4992524;28;9641;-68
2022/01/12 02:41:42;;;;;;;;;10.00;10.00;;;;;16.48;53.03;103704.59;4992109;28;9740;-68
2022/01/12 02:54:44;;;;;;;;;9.25;9.25;;;;;16.51;52.74;103700.34;4990877;28;9709;-67
2022/01/12 02:57:10;;;;;;;;;10.25;9.25;;;;;16.49;52.91;103698.47;4992076;28;8926;-68
2022/01/12 02:59:36;;;;;;;;;10.00;10.00;;;;;16.48;52.84;103687.03;4992236;28;9749;-68
2022/01/12 03:02:19;;;;;;;;;12.25;11.00;;;;;16.46;52.69;103699.22;4991382;28;8898;-68
2022/01/12 03:04:58;;;;;;;;;10.00;10.00;;;;;16.53;52.89;103700.41;4991855;28;9936;-68
2022/01/12 03:07:24;;;;;;;;;11.50;9.50;;;;;16.49;52.61;103680.94;4991450;28;9710;-68
2022/01/12 03:09:49;;;;;;;;;13.00;11.75;;;;;16.47;52.86;103677.31;4991947;28;10465;-67
2022/01/12 03:12:15;;;;;;;;;6.75;5.50;;;;;16.47;52.96;103668.50;4992251;28;9517;-68
2022/01/12 03:14:43;;;;;;;;;10.50;10.50;;;;;16.52;52.73;103670.50;4990890;28;9548;-68
2022/01/12 03:17:11;;;;;;;;;8.25;8.25;;;;;16.54;52.84;103676.72;4991711;28;9804;-68
2022/01/12 03:19:36;;;;;;;;;11.25;11.00;;;;;16.52;52.74;103691.59;4991933;28;9658;-68
2022/01/12 03:22:02;;;;;;;;;7.75;7.25;;;;;16.52;52.83;103704.78;4991041;28;9898;-68
2022/01/12 03:24:27;;;;;;;;;11.00;11.00;;;;;16.50;52.76;103711.72;4991525;28;8844;-68
2022/01/12 03:26:52;;;;;;;;;12.00;10.00;;;;;16.52;52.88;103706.53;4991532;28;8883;-67
2022/01/12 03:29:18;;;;;;;;;9.75;9.75;;;;;16.50;52.77;103716.09;4990874;28;8797;-68
2022/01/12 03:31:43;;;;;;;;;9.00;9.00;;;;;16.50;52.57;103714.34;4991552;28;8772;-68
2022/01/12 03:34:24;;;;;;;;;10.50;10.00;;;;;16.52;52.61;103723.25;4991527;28;8803;-67
2022/01/12 03:39:50;;;;;;;;;11.75;9.75;;;;;16.47;52.72;103727.41;4969892;28;10102;-67
2022/01/12 03:42:15;;;;;;;;;10.00;10.00;;;;;16.51;52.62;103731.09;4986462;28;9829;-67
2022/01/12 03:44:41;;;;;;;;;11.00;11.00;;;;;16.52;52.59;103732.88;4991036;28;8840;-67
2022/01/12 03:47:06;;;;;;;;;10.00;9.00;;;;;16.52;52.85;103738.16;4991869;28;8801;-67
2022/01/12 03:49:32;;;;;;;;;6.50;6.50;;;;;16.51;52.57;103739.00;4990978;28;9630;-67
2022/01/12 03:51:57;;;;;;;;;9.00;9.00;;;;;16.48;52.76;103741.50;4991389;28;8780;-67
2022/01/12 03:54:22;;;;;;;;;8.75;7.75;;;;;16.52;52.52;103746.97;4991600;28;8784;-67
2022/01/12 03:56:47;;;;;;;;;10.00;9.25;;;;;16.52;52.42;103743.44;4990407;28;8800;-68
2022/01/12 03:59:14;;;;;;;;;11.75;11.00;;;;;16.51;52.62;103739.91;4991658;28;8870;-68
2022/01/12 04:01:39;;;;;;;;;10.00;10.00;;;;;16.49;52.38;103738.94;4991397;28;8768;-68
2022/01/12 04:04:09;;;;;;;;;10.50;10.50;;;;;16.51;52.54;103744.28;4990507;28;9780;-68
2022/01/12 04:09:19;;;;;;;;;12.50;11.00;;;;;16.53;52.24;103718.88;4995222;28;9623;-68
2022/01/12 04:11:45;;;;;;;;;10.00;8.75;;;;;16.51;52.47;103716.16;4994023;28;9587;-67
2022/01/12 04:14:13;;;;;;;;;11.00;11.00;;;;;16.54;52.50;103726.84;4995293;28;8812;-69
2022/01/12 04:16:39;;;;;;;;;8.50;7.25;;;;;16.53;52.35;103724.16;4995079;28;8781;-68
2022/01/12 04:19:05;;;;;;;;;10.25;9.25;;;;;16.51;52.29;103729.34;4994290;28;10359;-68
2022/01/12 04:21:35;;;;;;;;;9.75;8.25;;;;;16.51;52.40;103729.34;4995099;28;9653;-67
2022/01/12 04:24:00;;;;;;;;;12.00;11.00;;;;;16.51;52.23;103723.16;4993095;28;8840;-67
2022/01/12 04:26:27;;;;;;;;;10.50;9.75;;;;;16.50;52.47;103735.44;4994488;28;9651;-68
2022/01/12 04:28:53;;;;;;;;;10.50;10.25;;;;;16.49;52.54;103744.22;4994906;28;8779;-68
2022/01/12 04:31:19;;;;;;;;;10.00;10.00;;;;;16.53;52.39;103759.34;4993851;28;9637;-68
2022/01/12 04:33:46;;;;;;;;;8.25;7.00;;;;;16.54;52.18;103762.84;4994748;28;9492;-68
2022/01/12 04:36:12;;;;;;;;;12.25;11.50;;;;;16.53;52.31;103756.72;4994943;28;8804;-67
2022/01/12 04:38:39;;;;;;;;;11.50;10.50;;;;;16.53;52.60;103742.63;4993706;28;9499;-67
2022/01/12 04:41:08;;;;;;;;;11.50;8.75;;;;;16.50;52.60;103748.63;4994690;28;9643;-67
2022/01/12 04:43:36;;;;;;;;;14.00;11.00;;;;;16.53;51.99;103738.25;4994632;28;9674;-68
2022/01/12 04:48:37;;;;;;;;;9.75;9.75;;;;;16.49;52.38;103711.66;4994566;28;9503;-67
2022/01/12 04:51:02;;;;;;;;;6.50;6.50;;;;;16.51;52.53;103721.44;4994118;28;10238;-67
2022/01/12 04:53:30;;;;;;;;;9.75;9.75;;;;;16.52;52.45;103719.72;4993520;28;9628;-67
2022/01/12 04:55:56;;;;;;;;;10.50;9.00;;;;;16.48;52.76;103721.31;4994383;28;8785;-67
2022/01/12 04:58:22;;;;;;;;;5.75;5.75;;;;;16.53;52.81;103735.59;4994695;28;9643;-67
2022/01/12 05:00:48;;;;;;;;;8.25;6.50;;;;;16.54;53.06;103739.13;4993106;28;9882;-67
2022/01/12 05:13:56;;;;;;;;;9.00;9.00;;;;;16.52;53.31;103751.34;4993090;28;9724;-67
2022/01/12 05:16:22;;;;;;;;;9.00;9.00;;;;;16.52;53.42;103752.25;4993763;28;9731;-67
2022/01/12 05:18:50;;;;;;;;;9.75;9.75;;;;;16.55;53.48;103765.56;4993417;28;9728;-68
2022/01/12 05:21:17;;;;;;;;;8.00;8.00;;;;;16.54;53.63;103762.84;4993431;28;9709;-67
2022/01/12 05:23:43;;;;;;;;;9.00;9.00;;;;;16.53;53.48;103767.25;4993287;28;9694;-68
2022/01/12 05:26:08;;;;;;;;;8.50;8.50;;;;;16.54;53.44;103771.69;4993998;28;9640;-67
2022/01/12 05:28:35;;;;;;;;;6.00;6.00;;;;;16.54;53.60;103770.78;4993234;28;8780;-68
2022/01/12 05:31:01;;;;;;;;;6.75;6.75;;;;;16.52;53.68;103767.19;4993581;28;8851;-67
2022/01/12 05:33:28;;;;;;;;;8.00;8.00;;;;;16.54;53.77;103779.59;4993622;28;9554;-68
2022/01/12 05:35:55;;;;;;;;;8.00;8.00;;;;;16.52;53.78;103772.44;4992568;28;9576;-68
2022/01/12 05:38:21;;;;;;;;;9.50;7.50;;;;;16.50;53.64;103772.38;4993802;28;9662;-68
2022/01/12 05:40:52;;;;;;;;;4.75;2.75;;;;;16.51;53.74;103773.28;4993094;28;9673;-68
2022/01/12 05:43:23;;;;;;;;;8.75;8.75;;;;;16.51;53.88;103773.28;4992743;28;8903;-67
2022/01/12 05:45:48;;;;;;;;;9.25;9.25;;;;;16.48;54.00;103773.16;4993374;28;9735;-68
2022/01/12 05:50:41;;;;;;;;;8.25;7.00;;;;;16.53;53.83;103783.09;4992602;28;8781;-67
2022/01/12 05:53:06;;;;;;;;;11.50;9.00;;;;;16.53;54.09;103790.09;4993406;28;8780;-67
2022/01/12 05:55:32;;;;;;;;;6.00;6.00;;;;;16.51;54.08;103792.66;4993320;28;9757;-67
2022/01/12 05:57:57;;;;;;;;;6.00;6.00;;;;;16.52;53.79;103790.91;4992722;28;8795;-67
2022/01/12 06:00:24;;;;;;;;;4.75;4.75;;;;;16.54;53.67;103787.50;4993335;28;8792;-67
2022/01/12 06:02:51;;;;;;;;;9.00;8.00;;;;;16.47;53.76;103793.34;4992065;28;8781;-67
2022/01/12 06:05:19;;;;;;;;;9.00;6.50;;;;;16.50;53.94;103801.38;4993135;28;9717;-67
2022/01/12 06:07:45;;;;;;;;;7.50;7.50;;;;;16.52;53.79;103798.81;4992980;28;9808;-68
2022/01/12 06:10:11;;;;;;;;;9.50;7.50;;;;;16.50;54.11;103811.03;4992558;28;9634;-67
2022/01/12 06:12:37;;;;;;;;;8.25;7.25;;;;;16.50;53.74;103817.22;4992813;28;9753;-68
2022/01/12 06:15:03;;;;;;;;;9.00;8.00;;;;;16.53;53.62;103820.00;4992472;28;8811;-68
2022/01/12 06:17:28;;;;;;;;;6.00;6.00;;;;;16.47;53.88;103819.72;4991982;28;9648;-67
2022/01/12 06:19:54;;;;;;;;;6.00;6.00;;;;;16.49;53.73;103835.63;4992558;28;8785;-68
2022/01/12 06:22:19;;;;;;;;;8.75;7.50;;;;;16.54;53.83;103836.72;4992950;28;8804;-68
2022/01/12 06:24:44;;;;;;;;;7.25;6.00;;;;;16.50;53.90;103830.41;4991470;28;8827;-68
2022/01/12 06:27:14;;;;;;;;;6.75;4.75;;;;;16.50;53.72;103832.13;4992948;28;8878;-68
2022/01/12 06:32:19;;;;;;;;;8.75;8.75;;;;;16.50;53.73;103832.13;4992049;28;9550;-70
2022/01/12 06:34:49;;;;;;;;;8.25;6.50;;;;;16.49;53.84;103841.81;4992495;28;9549;-68
2022/01/12 06:37:15;;;;;;;;;6.00;6.00;;;;;16.47;53.96;103832.00;4992606;28;8887;-68
2022/01/12 06:39:40;;;;;;;;;5.25;5.25;;;;;16.49;53.84;103832.97;4991657;28;9806;-68
2022/01/12 06:42:06;;;;;;;;;6.00;6.00;;;;;16.50;53.74;103843.59;4992531;28;9663;-69
2022/01/12 06:44:31;;;;;;;;;6.50;6.50;;;;;16.47;53.89;103839.91;4992245;28;9552;-68
2022/01/12 06:47:02;;;;;;;;;5.25;5.00;;;;;16.49;53.96;103843.53;4991468;28;9670;-69
2022/01/12 06:49:27;;;;;;;;;8.25;7.00;;;;;16.48;53.63;103845.25;4991666;28;8796;-69
2022/01/12 06:51:53;;;;;;;;;7.00;6.00;;;;;16.47;53.95;103848.72;4991497;28;9732;-67
2022/01/12 06:54:18;;;;;;;;;7.25;6.00;;;;;16.44;53.99;103854.78;4991684;28;9528;-66
2022/01/12 06:56:43;;;;;;;;;5.50;5.50;;;;;16.47;53.70;103872.47;4992061;28;8803;-67
2022/01/12 06:59:09;;;;;;;;;9.25;8.75;;;;;16.48;53.84;103876.00;4991573;28;8785;-67
2022/01/12 07:01:38;;;;;;;;;6.25;5.25;;;;;16.47;53.56;103879.47;4992474;28;8891;-67
2022/01/12 07:04:03;;;;;;;;;6.50;6.50;;;;;16.47;53.72;103884.75;4991898;28;8816;-67
2022/01/12 07:06:29;;;;;;;;;5.50;5.50;;;;;16.47;53.80;103890.00;4991244;28;9657;-68
2022/01/12 07:08:54;;;;;;;;;7.50;7.50;;;;;16.53;53.64;103892.94;4989890;28;8805;-68
2022/01/12 07:11:25;;;;;;;;;7.25;7.25;;;;;16.46;53.69;103883.84;4992375;28;8780;-67
2022/01/12 07:13:51;;;;;;;;;7.50;6.00;;;;;16.47;53.75;103893.56;4991248;28;8885;-67
2022/01/12 07:16:16;;;;;;;;;6.75;6.75;;;;;16.50;53.69;103901.59;4992088;28;9491;-68
2022/01/12 07:18:41;;;;;;;;;7.75;6.75;;;;;16.63;53.94;103893.47;4991502;28;8801;-68
2022/01/12 07:21:07;;;;;;;;;9.50;8.25;;;;;16.75;56.21;103896.66;4991055;28;8801;-68
2022/01/12 07:23:32;;;;;;;;;8.75;7.00;;;;;16.87;58.60;103886.63;4991630;28;8816;-68
2022/01/12 07:26:00;;;;;;;;;8.75;6.00;;;;;16.99;55.56;103894.19;4991662;28;8808;-68
2022/01/12 07:28:25;;;;;;;;;10.50;10.50;;;;;17.10;59.86;103897.28;4990925;28;8866;-68
2022/01/12 07:30:51;;;;;;;;;13.50;12.00;;;;;17.15;59.27;103898.41;4991484;28;9590;-68
2022/01/12 07:33:16;;;;;;;;;7.75;7.75;;;;;17.19;58.44;103895.97;4991855;28;9583;-68
2022/01/12 07:35:43;;;;;;;;;11.75;11.25;;;;;17.23;62.54;103902.28;4990672;28;8780;-69
2022/01/12 07:38:08;;;;;;;;;9.75;9.75;;;;;17.37;59.30;103912.59;4991843;28;9528;-69
2022/01/12 07:40:35;;;;;;;;;11.75;10.50;;;;;17.53;60.16;103908.88;4993398;28;9587;-69
2022/01/12 07:43:05;;;;;;;;;9.50;9.25;;;;;17.64;58.71;103918.19;4994898;28;8792;-69
2022/01/12 07:45:30;;;;;;;;;10.50;8.75;;;;;17.63;62.05;103920.75;4995814;28;9733;-68
2022/01/12 07:50:25;;;;;;;;;13.25;11.50;;;;;17.47;65.04;103908.59;5221619;23;9587;-77
2022/01/12 07:52:53;;;;;;;;;8.50;8.25;;;;;17.31;66.27;103915.00;5027783;28;8837;-80
2022/01/12 07:55:23;;;;;;;;;13.25;11.25;;;;;17.26;65.12;103913.88;5030335;28;9737;-78
2022/01/12 07:57:49;;;;;;;;;15.75;13.00;;;;;17.18;66.52;103923.19;5034244;28;9742;-80
2022/01/12 08:00:16;;;;;;;;;12.25;9.75;;;;;17.07;66.14;103929.75;5031959;28;10323;-82
2022/01/12 08:02:42;;;;;;;;;11.25;11.25;;;;;17.02;66.58;103943.59;5032354;28;9656;-81
2022/01/12 08:05:08;;;;;;;;;13.00;11.50;;;;;16.94;65.79;103947.63;5033102;28;9712;-80
2022/01/12 08:07:36;;;;;;;;;12.50;11.25;;;;;16.91;66.80;103948.38;5033373;28;8782;-80
2022/01/12 08:10:06;;;;;;;;;6.75;6.75;;;;;16.89;66.13;103956.25;5032846;28;9885;-81
2022/01/12 08:12:31;;;;;;;;;12.75;8.75;;;;;16.88;66.90;103962.34;5030413;28;10722;-81
2022/01/12 08:14:57;;;;;;;;;11.00;10.00;;;;;16.90;65.11;103959.78;5033358;28;9794;-81
2022/01/12 08:17:22;;;;;;;;;10.25;9.00;;;;;16.97;64.38;103953.94;5032997;28;8884;-81
2022/01/12 08:19:47;;;;;;;;;11.50;11.50;;;;;16.91;64.32;103959.84;5033251;28;8823;-81
2022/01/12 08:22:13;;;;;;;;;11.50;11.50;;;;;16.97;64.67;103963.59;5031585;28;8799;-81
2022/01/12 08:24:41;;;;;;;;;11.75;9.75;;;;;16.94;64.03;103961.72;5032729;28;8831;-81
2022/01/12 08:27:07;;;;;;;;;7.50;7.50;;;;;16.99;63.22;103956.63;5033140;28;9507;-82
2022/01/12 08:29:32;;;;;;;;;9.67;9.33;;;;;17.00;63.80;103966.38;5033291;28;9427;-82
2022/01/12 08:32:05;;;;;;;;;9.25;9.25;;;;;17.00;63.18;103969.00;5031332;28;9373;-82
2022/01/12 08:34:34;;;;;;;;;7.75;7.00;;;;;16.88;63.55;103974.63;5013717;28;11066;-81
2022/01/12 08:37:02;;;;;;;;;11.25;9.50;;;;;16.82;63.19;103971.72;5006356;28;10417;-81
2022/01/12 08:39:40;;;;;;;;;6.00;6.00;;;;;16.87;62.68;103976.38;5032510;28;9574;-81
2022/01/12 08:42:06;;;;;;;;;8.00;7.25;;;;;16.70;62.66;103957.97;5032829;28;9446;-81
2022/01/12 08:44:32;;;;;;;;;9.75;8.75;;;;;16.88;62.81;103994.00;5031120;28;9598;-81
2022/01/12 08:47:06;;;;;;;;;5.50;5.50;;;;;16.75;62.40;103978.47;5030926;28;10501;-81
2022/01/12 08:49:38;;;;;;;;;6.75;6.75;;;;;16.68;61.96;103971.09;5032898;28;9743;-82
2022/01/12 08:52:08;;;;;;;;;8.50;8.50;;;;;16.75;62.07;103967.91;5029825;28;9661;-84
2022/01/12 08:54:43;;;;;;;;;6.50;6.50;;;;;16.77;61.57;103974.16;5033205;28;9743;-82
2022/01/12 08:57:08;;;;;;;;;6.00;6.00;;;;;16.70;61.51;103968.50;5031657;28;9642;-81
2022/01/12 09:00:27;;;;;;;;;8.75;6.75;;;;;16.68;61.67;103971.09;5031688;28;9525;-81
2022/01/12 09:02:56;;;;;;;;;9.00;7.50;;;;;16.81;61.04;103997.19;5025224;28;8888;-80
2022/01/12 09:05:21;;;;;;;;;6.25;6.25;;;;;16.73;60.68;103977.47;5032067;28;9533;-79
2022/01/12 09:07:47;;;;;;;;;5.00;5.00;;;;;16.76;60.75;103996.06;5031805;28;10281;-80
2022/01/12 09:10:24;;;;;;;;;8.50;8.50;;;;;16.71;60.81;103994.06;5032850;28;8894;-80
2022/01/12 09:12:49;;;;;;;;;9.75;8.00;;;;;16.87;60.56;104028.28;5032417;28;10823;-79
2022/01/12 09:15:15;;;;;;;;;8.50;5.75;;;;;16.89;60.19;104034.50;5030993;28;9729;-79
2022/01/12 09:17:42;;;;;;;;;6.25;5.25;;;;;16.64;60.30;104000.81;5030476;28;10489;-79
2022/01/12 09:24:03;;;;;;;;;7.25;7.00;;;;;16.72;59.79;104019.63;5002142;28;9592;-79
2022/01/12 09:26:28;;;;;;;;;6.00;6.00;;;;;16.86;59.70;104047.56;5010104;28;9658;-80
2022/01/12 09:29:02;;;;;;;;;8.25;7.25;;;;;16.78;59.60;104041.03;5009302;28;9765;-80
2022/01/12 09:31:27;;;;;;;;;8.50;7.50;;;;;16.81;59.58;104055.25;5009737;28;8786;-80
2022/01/12 09:33:53;;;;;;;;;7.00;6.25;;;;;16.77;59.47;104042.75;5008064;28;9787;-79
2022/01/12 09:36:18;;;;;;;;;6.00;6.00;;;;;16.82;59.67;104058.81;5010022;28;8830;-80
2022/01/12 09:38:43;;;;;;;;;8.50;8.50;;;;;16.82;59.36;104064.09;4898838;28;10565;-79
2022/01/12 09:41:09;;;;;;;;;7.00;5.25;;;;;16.88;58.67;104067.00;5009259;28;8810;-80
2022/01/12 09:43:36;;;;;;;;;5.00;5.00;;;;;16.79;58.72;104061.31;5008818;28;8818;-79
2022/01/12 09:46:09;;;;;;;;;6.75;6.25;;;;;16.60;59.00;104046.34;5028536;28;10589;-79
2022/01/12 09:48:55;;;;;;;;;4.50;4.50;;;;;16.73;58.99;104048.72;5029508;28;10596;-80
2022/01/12 09:51:30;;;;;;;;;7.00;7.00;;;;;16.81;58.23;104059.63;5028811;28;9597;-81
2022/01/12 09:53:58;;;;;;;;;6.75;5.75;;;;;16.69;58.49;104062.59;5034639;28;9588;-81
2022/01/12 09:56:28;;;;;;;;;5.25;5.00;;;;;16.83;58.52;104073.81;5030490;28;9572;-77
2022/01/12 09:58:56;;;;;;;;;5.25;5.00;;;;;16.82;58.31;104077.28;5031176;28;9651;-79
2022/01/12 10:01:27;;;;;;;;;5.50;5.00;;;;;16.73;58.58;104074.19;5023986;28;10449;-78
2022/01/12 10:07:25;;;;;;;;;6.00;6.00;;;;;16.78;58.24;104089.44;5020250;28;9446;-79
2022/01/12 10:09:56;;;;;;;;;4.75;4.75;;;;;16.74;58.36;104089.19;5030195;28;9565;-78
2022/01/12 10:12:22;;;;;;;;;9.50;6.00;;;;;16.83;57.91;104093.16;5028172;28;9585;-79
2022/01/12 10:15:06;;;;;;;;;5.25;5.25;;;;;16.83;57.82;104094.94;5011631;28;10370;-79
2022/01/12 10:17:45;;;;;;;;;5.75;5.75;;;;;16.67;57.80;104059.00;5010097;28;9591;-79
2022/01/12 10:20:21;;;;;;;;;7.50;7.00;;;;;16.86;58.01;104076.59;5011148;28;9664;-80
2022/01/12 10:23:06;;;;;;;;;5.00;5.00;;;;;16.76;57.67;104069.97;5015960;28;9635;-79
2022/01/12 10:25:33;;;;;;;;;4.00;4.00;;;;;16.70;58.08;104069.69;5011815;28;9753;-78
2022/01/12 10:28:19;;;;;;;;;5.00;5.00;;;;;16.60;57.64;104045.44;5021615;28;10721;-79
2022/01/12 10:31:15;;;;;;;;;4.25;4.25;;;;;16.78;57.97;104075.31;5036210;28;9673;-76
2022/01/12 10:34:03;;;;;;;;;5.00;5.00;;;;;16.79;57.76;104072.78;5048687;28;9703;-76
2022/01/12 10:36:48;;;;;;;;;4.50;4.50;;;;;16.77;57.97;104079.69;5050941;28;10382;-76
2022/01/12 10:39:15;;;;;;;;;4.00;4.00;;;;;16.78;57.28;104070.94;5049695;28;9635;-78
2022/01/12 10:42:04;;;;;;;;;5.00;5.00;;;;;16.70;57.52;104061.75;5036680;28;11123;-79
2022/01/12 10:44:41;;;;;;;;;3.75;3.75;;;;;16.69;57.54;104054.66;5029509;28;9859;-77
2022/01/12 10:47:21;;;;;;;;;4.50;4.00;;;;;16.75;57.42;104080.47;4987285;28;10670;-77
2022/01/12 10:50:00;;;;;;;;;4.50;4.50;;;;;16.81;57.30;104091.28;5005788;23;9929;-78
2022/01/12 10:52:49;;;;;;;;;3.00;3.00;;;;;16.76;57.59;104098.06;5010255;28;10351;-76
2022/01/12 10:55:15;;;;;;;;;4.00;4.00;;;;;16.70;57.23;104095.16;5006023;28;9483;-77
2022/01/12 10:57:47;;;;;;;;;4.00;4.00;;;;;16.74;57.59;104098.03;5011011;28;9507;-77
2022/01/12 11:00:35;;;;;;;;;4.00;4.00;;;;;16.63;57.41;104074.59;5011031;28;9548;-78
2022/01/12 11:03:06;;;;;;;;;4.00;4.00;;;;;16.59;57.36;104057.72;5011025;28;9688;-78
2022/01/12 11:05:32;;;;;;;;;4.00;4.00;;;;;16.63;57.54;104075.50;5010828;28;9429;-78
2022/01/12 11:08:03;;;;;;;;;3.50;3.50;;;;;16.79;57.20;104099.16;5011117;28;9421;-79
2022/01/12 11:12:54;;;;;;;;;4.50;4.50;;;;;16.68;57.56;104063.44;5237574;23;9471;-78
2022/01/12 11:15:22;;;;;;;;;7.25;7.25;;;;;16.68;57.29;104044.97;5014992;28;8800;-79
2022/01/12 11:17:55;;;;;;;;;7.00;7.00;;;;;16.57;57.81;104035.63;5013998;28;9679;-78
2022/01/12 11:20:33;;;;;;;;;5.00;5.00;;;;;16.59;57.45;104026.06;5013577;28;9732;-78
2022/01/12 11:23:19;;;;;;;;;7.25;7.25;;;;;16.70;57.60;104056.50;5014946;28;9504;-78
2022/01/12 11:26:26;;;;;;;;;5.50;5.00;;;;;16.53;57.61;104012.56;5014933;28;9678;-79
2022/01/12 11:29:07;;;;;;;;;6.25;6.25;;;;;16.55;57.68;104013.50;5014001;28;9612;-78
2022/01/12 11:31:35;;;;;;;;;6.75;6.25;;;;;16.63;57.72;104033.28;5014861;28;9513;-79
2022/01/12 11:34:19;;;;;;;;;6.75;6.75;;;;;16.68;57.64;104036.16;5017660;28;9584;-79
2022/01/12 11:36:45;;;;;;;;;7.00;7.00;;;;;16.62;57.85;104031.47;5033883;28;9659;-79
2022/01/12 11:42:49;;;;;;;;;11.00;9.25;;;;;16.82;57.38;104041.25;5033267;28;8774;-79
2022/01/12 11:46:31;;;;;;;;;4.25;4.25;;;;;16.54;57.80;104016.06;5032732;28;10470;-79
2022/01/12 11:53:37;;;;;;;;;;;;;;;;;;;;;
2022/01/12 11:57:00;;;;;;;;;9.25;9.25;;;;;16.73;57.39;104045.16;5330819;23;9720;-78
2022/01/12 11:59:48;;;;;;;;;8.75;6.00;;;;;16.71;57.28;104049.47;4989930;28;9728;-78
2022/01/12 12:02:14;;;;;;;;;10.25;9.00;;;;;16.61;57.53;104026.13;4990969;28;9732;-78
2022/01/12 12:05:30;;;;;;;;;6.00;6.00;;;;;16.82;57.61;104042.97;4990986;28;9749;-78
2022/01/12 12:08:34;;;;;;;;;7.25;7.25;;;;;16.61;57.03;104005.91;4976267;28;9540;-79
2022/01/12 12:11:14;;;;;;;;;9.50;5.75;;;;;16.70;57.54;104029.19;5010253;28;10456;-79
2022/01/12 12:13:41;;;;;;;;;5.50;5.50;;;;;16.76;57.24;104032.09;5017630;23;9709;-79
2022/01/12 12:16:06;;;;;;;;;7.25;6.00;;;;;16.72;57.30;104022.28;5009628;28;9836;-80
2022/01/12 12:18:32;;;;;;;;;3.75;3.75;;;;;16.74;57.61;104028.50;4998933;28;9746;-79
2022/01/12 12:20:57;;;;;;;;;6.00;5.25;;;;;16.75;57.41;104027.69;4989754;28;8794;-79
2022/01/12 12:23:26;;;;;;;;;7.00;6.50;;;;;16.77;57.18;104016.38;4990331;28;8779;-78
2022/01/12 12:25:51;;;;;;;;;2.50;2.50;;;;;16.71;57.29;104002.91;4990616;28;8814;-79
2022/01/12 12:28:17;;;;;;;;;10.00;9.25;;;;;16.73;57.75;104014.41;4970452;28;10661;-79
2022/01/12 12:30:43;;;;;;;;;4.00;4.00;;;;;16.87;56.93;104017.72;5005690;28;10990;-79
2022/01/12 12:33:13;;;;;;;;;9.50;9.50;;;;;16.84;57.38;104017.53;5029857;28;10515;-80
2022/01/12 12:35:41;;;;;;;;;5.50;5.50;;;;;16.83;56.98;104000.81;5005852;28;10799;-79
2022/01/12 12:38:09;;;;;;;;;7.00;5.50;;;;;16.86;57.13;103994.78;5011666;28;9754;-79
2022/01/12 12:40:41;;;;;;;;;7.00;6.00;;;;;16.85;56.97;104007.06;5013480;28;9809;-79
2022/01/12 12:43:13;;;;;;;;;6.75;6.00;;;;;16.79;57.15;104020.00;5011934;28;9634;-79
2022/01/12 12:45:44;;;;;;;;;4.00;4.00;;;;;16.82;57.07;104020.13;5012741;28;9757;-79
2022/01/12 12:48:49;;;;;;;;;7.50;7.50;;;;;16.73;57.14;104003.84;5012641;28;9672;-79
2022/01/12 12:51:16;;;;;;;;;5.50;5.25;;;;;16.70;57.00;104016.91;5007208;28;9731;-79
2022/01/12 12:54:51;;;;;;;;;5.75;4.00;;;;;16.66;57.20;104004.41;5011098;28;9814;-79
2022/01/12 12:58:03;;;;;;;;;4.25;4.25;;;;;16.65;57.04;104010.50;4856799;29;9859;-79
2022/01/12 13:04:02;;;;;;;;;5.00;4.00;;;;;16.72;57.14;104031.06;4855770;29;9631;-79
2022/01/12 13:07:24;;;;;;;;;5.75;4.25;;;;;16.69;57.06;104025.66;4855798;28;11021;-80
2022/01/12 13:10:23;;;;;;;;;4.25;4.25;;;;;16.82;56.94;104042.97;4836390;29;10555;-80
2022/01/12 13:13:03;;;;;;;;;5.00;5.00;;;;;17.16;56.50;104048.97;4870916;29;10487;-80
2022/01/12 13:15:36;;;;;;;;;4.25;4.25;;;;;16.76;57.36;104053.22;4837951;29;10852;-80
2022/01/12 13:18:05;;;;;;;;;6.75;5.00;;;;;16.66;57.62;104058.91;4856438;29;9648;-80
2022/01/12 13:21:11;;;;;;;;;4.50;4.00;;;;;16.61;57.77;104049.88;4894259;29;9593;-80